Terminal Aerodrome Forecast
Issued by NWS Shreveport, LA

Home | Current Version | Previous Version | Text Only | Print | Product List | Glossary On
Versions: 1 2 3 4 5 6 7 8 9 10 11 12 13 14 15
000
FTUS44 KSHV 242340
TAFLFK
TAF
KLFK 242340Z 2500/2524 17010KT P6SM SCT035 SCT050
     FM250600 17007KT P6SM BKN007
      TEMPO 2510/2513 3SM BR OVC004
     FM251500 16010KT P6SM BKN025 BKN250
     FM252100 16014KT P6SM BKN035=

USA.gov is the U.S. government's official web portal to all federal, state and local government web resources and services.